createdAt,value
2023-05-16T00:01:10.017Z,13.40
2023-05-16T00:03:39.138Z,13.40
2023-05-16T00:06:05.787Z,13.32
2023-05-16T00:08:32.148Z,13.33
2023-05-16T00:10:58.460Z,13.45
2023-05-16T00:13:25.770Z,13.32
2023-05-16T00:15:53.499Z,13.37
2023-05-16T00:18:19.979Z,13.18
2023-05-16T00:20:46.288Z,13.19
2023-05-16T00:23:12.873Z,13.19
2023-05-16T00:25:39.242Z,13.23
2023-05-16T00:28:05.802Z,13.15
2023-05-16T00:30:32.397Z,13.16
2023-05-16T00:32:58.757Z,13.21
2023-05-16T00:35:25.261Z,13.24
2023-05-16T00:37:51.634Z,13.24
2023-05-16T00:40:18.163Z,13.26
2023-05-16T00:42:44.635Z,13.15
2023-05-16T00:45:11.379Z,13.07
2023-05-16T00:47:37.742Z,13.07
2023-05-16T00:50:04.539Z,13.21
2023-05-16T00:52:33.468Z,13.16
2023-05-16T00:55:00.169Z,13.14
2023-05-16T00:57:27.525Z,13.15
2023-05-16T00:59:54.503Z,13.22
2023-05-16T01:02:20.972Z,13.13
2023-05-16T01:04:48.267Z,13.00
2023-05-16T01:07:14.872Z,13.02
2023-05-16T01:09:41.684Z,13.01
2023-05-16T01:12:29.471Z,13.08
2023-05-16T01:15:35.355Z,13.03
2023-05-16T01:18:17.235Z,12.96
2023-05-16T01:20:52.005Z,13.05
2023-05-16T01:23:43.464Z,13.00
2023-05-16T01:26:15.484Z,13.03
2023-05-16T01:28:43.958Z,12.98
2023-05-16T01:31:11.073Z,12.97
2023-05-16T01:33:37.426Z,12.88
2023-05-16T01:36:11.642Z,12.94
2023-05-16T01:38:59.627Z,12.87
2023-05-16T01:42:01.170Z,12.86
2023-05-16T01:44:56.639Z,12.86
2023-05-16T01:47:26.805Z,12.88
2023-05-16T01:50:11.945Z,12.87
2023-05-16T01:52:45.975Z,12.76
2023-05-16T01:55:18.867Z,12.80
2023-05-16T01:57:46.007Z,12.72
2023-05-16T02:00:13.115Z,12.72
2023-05-16T02:02:42.446Z,12.72
2023-05-16T02:05:08.858Z,12.68
2023-05-16T02:07:36.142Z,12.65
2023-05-16T02:10:02.583Z,12.72
2023-05-16T02:12:28.921Z,12.56
2023-05-16T02:14:55.365Z,12.60
2023-05-16T02:17:21.899Z,12.60
2023-05-16T02:19:48.255Z,12.56
2023-05-16T02:22:14.565Z,12.56
2023-05-16T02:24:41.000Z,12.64
2023-05-16T02:27:07.331Z,12.60
2023-05-16T02:29:33.647Z,12.54
2023-05-16T02:32:00.116Z,12.50
2023-05-16T02:34:26.514Z,12.63
2023-05-16T02:36:52.831Z,12.55
2023-05-16T02:39:19.161Z,12.58
2023-05-16T02:41:45.499Z,12.55
2023-05-16T02:44:11.820Z,12.44
2023-05-16T02:46:38.205Z,12.41
2023-05-16T02:49:04.700Z,12.47
2023-05-16T02:51:31.316Z,12.38
2023-05-16T02:53:59.529Z,12.37
2023-05-16T02:56:26.183Z,12.39
2023-05-16T02:58:54.348Z,12.46
2023-05-16T03:01:20.912Z,12.40
2023-05-16T03:03:47.462Z,12.41
2023-05-16T03:06:13.934Z,12.24
2023-05-16T03:08:40.258Z,12.22
2023-05-16T03:11:06.569Z,12.18
2023-05-16T03:13:33.060Z,12.15
2023-05-16T03:15:59.722Z,12.21
2023-05-16T03:18:26.185Z,12.15
2023-05-16T03:20:52.940Z,12.19
2023-05-16T03:23:20.621Z,12.17
2023-05-16T03:25:47.717Z,12.16
2023-05-16T03:28:15.347Z,12.09
2023-05-16T03:30:42.146Z,12.19
2023-05-16T03:33:08.533Z,12.13
2023-05-16T03:35:36.345Z,12.11
2023-05-16T03:38:03.455Z,12.09
2023-05-16T03:40:29.850Z,12.07
2023-05-16T03:42:56.179Z,12.07
2023-05-16T03:45:22.525Z,12.07
2023-05-16T03:47:49.523Z,11.93
2023-05-16T03:50:16.309Z,12.01
2023-05-16T03:52:42.652Z,12.07
2023-05-16T03:55:09.339Z,11.96
2023-05-16T03:57:38.290Z,11.93
2023-05-16T04:00:07.992Z,11.84
2023-05-16T04:02:41.215Z,11.84
2023-05-16T04:05:09.187Z,11.86
2023-05-16T04:07:36.240Z,11.90
2023-05-16T04:10:03.386Z,11.86
2023-05-16T04:12:29.765Z,11.83
2023-05-16T04:14:56.267Z,11.78
2023-05-16T04:17:22.850Z,11.89
2023-05-16T04:19:49.259Z,12.01
2023-05-16T04:22:15.859Z,11.90
2023-05-16T04:24:42.211Z,11.68
2023-05-16T04:27:12.105Z,11.65
2023-05-16T04:29:38.492Z,11.54
2023-05-16T04:32:07.459Z,11.66
2023-05-16T04:34:39.830Z,11.65
2023-05-16T04:37:08.099Z,11.62
2023-05-16T04:39:35.659Z,11.65
2023-05-16T04:42:03.199Z,11.59
2023-05-16T04:44:29.880Z,11.52
2023-05-16T04:46:56.779Z,11.52
2023-05-16T04:49:23.316Z,11.58
2023-05-16T04:51:49.678Z,11.58
2023-05-16T04:54:16.030Z,11.57
2023-05-16T04:56:42.397Z,11.57
2023-05-16T04:59:08.732Z,11.50
2023-05-16T05:01:35.508Z,11.64
2023-05-16T05:04:01.902Z,11.60
2023-05-16T05:06:28.217Z,11.59
2023-05-16T05:08:54.811Z,11.52
2023-05-16T05:11:21.368Z,11.54
2023-05-16T05:13:47.667Z,11.47
2023-05-16T05:16:13.987Z,11.42
2023-05-16T05:18:40.403Z,11.41
2023-05-16T05:21:06.832Z,11.47
2023-05-16T05:23:34.724Z,11.43
2023-05-16T05:26:02.069Z,11.37
2023-05-16T05:28:28.468Z,11.29
2023-05-16T05:30:54.867Z,11.34
2023-05-16T05:33:27.015Z,11.32
2023-05-16T05:35:54.080Z,11.21
2023-05-16T05:38:20.400Z,11.34
2023-05-16T05:40:46.695Z,11.40
2023-05-16T05:43:13.155Z,11.26
2023-05-16T05:45:39.589Z,11.27
2023-05-16T05:48:06.505Z,11.35
2023-05-16T05:50:33.398Z,11.33
2023-05-16T05:52:59.904Z,11.37
2023-05-16T05:55:26.686Z,11.31
2023-05-16T05:57:53.240Z,11.24
2023-05-16T06:00:19.770Z,11.31
2023-05-16T06:02:47.286Z,11.30
2023-05-16T06:05:13.835Z,11.30
2023-05-16T06:07:40.234Z,11.33
2023-05-16T06:10:08.422Z,11.24
2023-05-16T06:12:34.750Z,11.30
2023-05-16T06:15:01.110Z,11.35
2023-05-16T06:17:27.438Z,11.30
2023-05-16T06:19:53.840Z,11.30
2023-05-16T06:22:20.122Z,11.41
2023-05-16T06:24:46.424Z,11.48
2023-05-16T06:27:12.728Z,11.47
2023-05-16T06:29:39.180Z,11.39
2023-05-16T06:32:06.011Z,11.34
2023-05-16T06:34:32.395Z,11.43
2023-05-16T06:36:59.602Z,11.52
2023-05-16T06:39:26.030Z,11.46
2023-05-16T06:41:55.627Z,11.41
2023-05-16T06:44:23.696Z,11.43
2023-05-16T06:46:50.118Z,11.39
2023-05-16T06:49:16.566Z,11.47
2023-05-16T06:51:42.985Z,11.37
2023-05-16T06:54:09.335Z,11.37
2023-05-16T06:56:35.987Z,11.30
2023-05-16T06:59:02.448Z,11.26
2023-05-16T07:01:28.962Z,11.29
2023-05-16T07:03:55.429Z,11.31
2023-05-16T07:06:21.932Z,11.23
2023-05-16T07:08:48.304Z,11.23
2023-05-16T07:11:14.943Z,11.24
2023-05-16T07:13:41.277Z,11.28
2023-05-16T07:16:08.408Z,11.13
2023-05-16T07:18:34.946Z,11.15
2023-05-16T07:21:01.324Z,11.04
2023-05-16T07:23:27.786Z,11.07
2023-05-16T07:25:54.213Z,11.09
2023-05-16T07:28:21.971Z,11.24
2023-05-16T07:30:48.622Z,11.14
2023-05-16T07:33:15.024Z,11.05
2023-05-16T07:35:41.609Z,11.01
2023-05-16T07:38:08.018Z,10.98
2023-05-16T07:40:34.403Z,11.00
2023-05-16T07:43:02.662Z,11.01
2023-05-16T07:45:29.427Z,11.13
2023-05-16T07:47:56.175Z,11.10
2023-05-16T07:50:22.611Z,10.95
2023-05-16T07:52:48.967Z,11.16
2023-05-16T07:55:15.359Z,11.29
2023-05-16T07:57:43.518Z,11.30
2023-05-16T08:00:11.548Z,11.38
2023-05-16T08:02:41.048Z,11.42
2023-05-16T08:05:08.230Z,11.21
2023-05-16T08:07:36.468Z,11.21
2023-05-16T08:10:03.463Z,11.14
2023-05-16T08:12:30.923Z,11.07
2023-05-16T08:14:57.292Z,11.16
2023-05-16T08:17:23.762Z,11.22
2023-05-16T08:19:50.167Z,11.22
2023-05-16T08:22:16.663Z,11.12
2023-05-16T08:24:43.057Z,10.86
2023-05-16T08:27:09.448Z,10.91
2023-05-16T08:29:35.814Z,10.96
2023-05-16T08:32:02.216Z,10.98
2023-05-16T08:34:31.722Z,10.83
2023-05-16T08:36:58.080Z,10.91
2023-05-16T08:39:24.484Z,10.93
2023-05-16T08:41:50.888Z,11.00
2023-05-16T08:44:21.587Z,11.14
2023-05-16T08:46:53.270Z,11.11
2023-05-16T08:49:20.223Z,10.98
2023-05-16T08:51:47.893Z,11.06
2023-05-16T08:54:15.746Z,11.16
2023-05-16T08:56:43.148Z,11.08
2023-05-16T08:59:09.980Z,11.02
2023-05-16T09:01:36.895Z,11.17
2023-05-16T09:04:06.872Z,11.18
2023-05-16T09:06:33.348Z,11.27
2023-05-16T09:08:59.725Z,11.30
2023-05-16T09:11:26.221Z,11.48
2023-05-16T09:13:52.545Z,11.40
2023-05-16T09:16:20.139Z,11.46
2023-05-16T09:18:53.726Z,11.62
2023-05-16T09:21:20.881Z,11.75
2023-05-16T09:23:49.652Z,11.78
2023-05-16T09:26:16.234Z,11.90
2023-05-16T09:28:43.558Z,12.00
2023-05-16T09:31:26.721Z,11.95
2023-05-16T09:33:55.802Z,11.73
2023-05-16T09:36:22.233Z,11.93
2023-05-16T09:38:51.220Z,12.13
2023-05-16T09:41:17.700Z,12.09
2023-05-16T09:43:44.828Z,12.10
2023-05-16T09:46:15.598Z,12.21
2023-05-16T09:48:45.342Z,12.32
2023-05-16T09:51:12.966Z,12.42
2023-05-16T09:53:40.495Z,12.34
2023-05-16T09:56:11.581Z,12.39
2023-05-16T09:58:40.263Z,12.19
2023-05-16T10:01:07.829Z,12.20
2023-05-16T10:03:38.999Z,12.15
2023-05-16T10:06:06.794Z,12.41
2023-05-16T10:08:36.437Z,12.64
2023-05-16T10:11:04.666Z,12.97
2023-05-16T10:13:32.988Z,13.31
2023-05-16T10:16:01.679Z,13.65
2023-05-16T10:18:32.600Z,14.12
2023-05-16T10:21:06.905Z,14.32
2023-05-16T10:23:35.985Z,14.22
2023-05-16T10:26:04.640Z,14.32
2023-05-16T10:28:31.324Z,14.56
2023-05-16T10:30:58.943Z,14.50
2023-05-16T10:33:26.007Z,14.33
2023-05-16T10:35:53.004Z,14.04
2023-05-16T10:38:21.090Z,13.97
2023-05-16T10:40:48.467Z,14.01
2023-05-16T10:43:25.095Z,14.57
2023-05-16T10:46:02.344Z,15.10
2023-05-16T10:48:30.651Z,15.46
2023-05-16T10:50:57.025Z,15.50
2023-05-16T10:53:31.282Z,15.57
2023-05-16T10:56:03.799Z,15.60
2023-05-16T10:58:33.173Z,15.66
2023-05-16T11:01:25.377Z,15.37
2023-05-16T11:03:58.240Z,15.23
2023-05-16T11:06:26.153Z,15.24
2023-05-16T11:09:10.847Z,15.45
2023-05-16T11:11:52.416Z,15.40
2023-05-16T11:14:29.007Z,15.27
2023-05-16T11:17:16.036Z,15.45
2023-05-16T11:19:44.136Z,15.91
2023-05-16T11:22:21.791Z,16.29
2023-05-16T11:25:05.895Z,16.51
2023-05-16T11:27:43.873Z,16.44
2023-05-16T11:30:10.182Z,16.67
2023-05-16T11:32:38.781Z,15.96
2023-05-16T11:35:12.160Z,15.87
2023-05-16T11:37:40.255Z,15.39
2023-05-16T11:40:09.568Z,15.41
2023-05-16T11:42:38.097Z,15.43
2023-05-16T11:45:09.484Z,15.36
2023-05-16T11:47:40.849Z,15.74
2023-05-16T11:50:11.580Z,16.18
2023-05-16T11:52:38.417Z,15.85
2023-05-16T11:55:06.804Z,15.43
2023-05-16T11:57:33.650Z,15.68
2023-05-16T12:00:14.418Z,16.15
2023-05-16T12:02:40.821Z,15.83
2023-05-16T12:05:09.610Z,15.30
2023-05-16T12:07:39.670Z,15.54
2023-05-16T12:10:10.964Z,16.01
2023-05-16T12:12:41.113Z,16.35
2023-05-16T12:15:09.806Z,16.55
2023-05-16T12:17:37.963Z,16.51
2023-05-16T12:20:06.493Z,16.04
2023-05-16T12:22:34.386Z,16.22
2023-05-16T12:25:20.443Z,16.51
2023-05-16T12:27:46.901Z,16.85
2023-05-16T12:30:13.671Z,16.44
2023-05-16T12:32:40.161Z,16.20
2023-05-16T12:35:07.763Z,15.85
2023-05-16T12:37:34.175Z,15.57
2023-05-16T12:40:00.820Z,15.54
2023-05-16T12:42:27.445Z,15.52
2023-05-16T12:44:56.755Z,15.70
2023-05-16T12:47:23.175Z,16.14
2023-05-16T12:49:51.215Z,16.57
2023-05-16T12:52:23.268Z,16.55
2023-05-16T12:54:49.638Z,16.68
2023-05-16T12:57:15.982Z,16.70
2023-05-16T12:59:42.326Z,16.79
2023-05-16T13:02:08.895Z,16.70
2023-05-16T13:04:36.935Z,16.65
2023-05-16T13:07:04.564Z,16.49
2023-05-16T13:09:32.663Z,16.17
2023-05-16T13:11:59.866Z,15.99
2023-05-16T13:14:26.661Z,16.08
2023-05-16T13:16:53.031Z,16.33
2023-05-16T13:19:19.590Z,16.59
2023-05-16T13:21:46.026Z,16.72
2023-05-16T13:24:12.350Z,16.49
2023-05-16T13:26:38.822Z,16.34
2023-05-16T13:29:05.424Z,15.98
2023-05-16T13:31:31.907Z,15.71
2023-05-16T13:33:58.812Z,15.55
2023-05-16T13:36:25.136Z,15.42
2023-05-16T13:38:51.515Z,15.24
2023-05-16T13:41:18.256Z,15.20
2023-05-16T13:43:44.611Z,15.11
2023-05-16T13:46:11.172Z,15.14
2023-05-16T13:48:37.686Z,15.15
2023-05-16T13:51:04.056Z,15.41
2023-05-16T13:53:30.472Z,15.48
2023-05-16T13:55:56.853Z,15.40
2023-05-16T13:58:23.227Z,15.15
2023-05-16T14:00:50.178Z,15.22
2023-05-16T14:03:16.988Z,15.06
2023-05-16T14:05:43.487Z,15.20
2023-05-16T14:08:09.873Z,15.15
2023-05-16T14:10:36.247Z,15.28
2023-05-16T14:13:02.662Z,15.37
2023-05-16T14:15:29.253Z,15.33
2023-05-16T14:17:55.954Z,15.19
2023-05-16T14:20:22.824Z,15.09
2023-05-16T14:22:49.228Z,14.99
2023-05-16T14:25:15.803Z,15.04
2023-05-16T14:27:42.130Z,15.13
2023-05-16T14:30:09.388Z,15.21
2023-05-16T14:32:35.770Z,15.09
2023-05-16T14:35:02.165Z,14.95
2023-05-16T14:37:28.552Z,14.78
2023-05-16T14:39:55.110Z,14.79
2023-05-16T14:42:21.518Z,14.74
2023-05-16T14:44:47.915Z,14.71
2023-05-16T14:47:14.291Z,14.78
2023-05-16T14:49:41.081Z,14.80
2023-05-16T14:52:07.528Z,14.87
2023-05-16T14:54:34.051Z,14.88
2023-05-16T14:57:00.797Z,14.92
2023-05-16T14:59:27.546Z,14.97
2023-05-16T15:01:54.016Z,14.81
2023-05-16T15:04:20.450Z,14.80
2023-05-16T15:06:46.811Z,14.79
2023-05-16T15:09:13.650Z,14.75
2023-05-16T15:11:39.988Z,14.70
2023-05-16T15:14:06.371Z,14.79
2023-05-16T15:16:32.773Z,14.67
2023-05-16T15:18:59.205Z,14.66
2023-05-16T15:21:25.671Z,14.64
2023-05-16T15:23:52.624Z,14.67
2023-05-16T15:26:19.028Z,14.67
2023-05-16T15:28:45.468Z,14.62
2023-05-16T15:31:11.968Z,14.69
2023-05-16T15:33:38.373Z,14.64
2023-05-16T15:36:05.680Z,14.59
2023-05-16T15:38:32.079Z,14.54
2023-05-16T15:41:13.614Z,14.52
2023-05-16T15:43:44.855Z,14.45
2023-05-16T15:46:11.426Z,14.47
2023-05-16T15:48:42.710Z,14.50
2023-05-16T15:51:09.389Z,14.54
2023-05-16T15:53:35.788Z,14.43
2023-05-16T15:56:02.138Z,14.27
2023-05-16T15:58:28.515Z,14.20
2023-05-16T16:00:55.129Z,14.24
2023-05-16T16:03:21.927Z,14.23
2023-05-16T16:05:48.393Z,14.10
2023-05-16T16:08:14.967Z,14.07
2023-05-16T16:10:41.351Z,14.09
2023-05-16T16:13:07.709Z,14.20
2023-05-16T16:15:35.860Z,14.06
2023-05-16T16:18:02.743Z,14.04
2023-05-16T16:20:29.225Z,14.19
2023-05-16T16:22:55.772Z,14.12
2023-05-16T16:25:22.241Z,14.22
2023-05-16T16:27:48.588Z,14.15
2023-05-16T16:30:15.025Z,14.08
2023-05-16T16:32:42.131Z,14.08
2023-05-16T16:35:08.772Z,13.92
2023-05-16T16:37:35.602Z,14.00
2023-05-16T16:40:02.420Z,13.97
2023-05-16T16:42:30.371Z,13.90
2023-05-16T16:44:57.003Z,13.93
2023-05-16T16:47:24.982Z,13.84
2023-05-16T16:49:51.509Z,13.77
2023-05-16T16:52:17.914Z,13.90
2023-05-16T16:54:44.454Z,13.74
2023-05-16T16:57:10.913Z,13.68
2023-05-16T16:59:37.302Z,13.69
2023-05-16T17:02:03.799Z,13.67
2023-05-16T17:04:31.463Z,13.62
2023-05-16T17:06:57.911Z,13.64
2023-05-16T17:09:25.322Z,13.65
2023-05-16T17:11:52.158Z,13.66
2023-05-16T17:14:18.587Z,13.49
2023-05-16T17:16:45.251Z,13.59
2023-05-16T17:19:11.698Z,13.60
2023-05-16T17:21:40.322Z,13.52
2023-05-16T17:24:07.483Z,13.48
2023-05-16T17:26:33.982Z,13.47
2023-05-16T17:29:00.532Z,13.57
2023-05-16T17:31:27.966Z,13.46
2023-05-16T17:33:54.324Z,13.45
2023-05-16T17:36:20.718Z,13.43
2023-05-16T17:38:47.613Z,13.55
2023-05-16T17:41:14.766Z,13.53
2023-05-16T17:43:44.006Z,13.48
2023-05-16T17:46:11.803Z,13.44
2023-05-16T17:48:38.310Z,13.44
2023-05-16T17:51:04.888Z,13.35
2023-05-16T17:53:31.368Z,13.36
2023-05-16T17:55:57.901Z,13.24
2023-05-16T17:58:24.337Z,13.30
2023-05-16T18:00:50.738Z,13.29
2023-05-16T18:03:17.405Z,13.23
2023-05-16T18:05:44.009Z,13.14
2023-05-16T18:08:10.463Z,13.07
2023-05-16T18:10:50.320Z,13.06
2023-05-16T18:13:17.958Z,13.03
2023-05-16T18:15:44.439Z,13.10
2023-05-16T18:18:10.976Z,13.08
2023-05-16T18:20:37.678Z,13.11
2023-05-16T18:23:04.054Z,13.06
2023-05-16T18:25:31.045Z,13.07
2023-05-16T18:27:57.891Z,13.07
2023-05-16T18:30:24.345Z,13.05
2023-05-16T18:32:50.828Z,12.99
2023-05-16T18:35:17.390Z,12.97
2023-05-16T18:37:44.458Z,12.89
2023-05-16T18:40:11.458Z,12.94
2023-05-16T18:42:37.807Z,12.91
2023-05-16T18:45:04.594Z,12.77
2023-05-16T18:47:31.368Z,12.78
2023-05-16T18:49:57.927Z,12.65
2023-05-16T18:52:24.298Z,12.65
2023-05-16T18:54:50.697Z,12.60
2023-05-16T18:57:17.576Z,12.59
2023-05-16T18:59:43.926Z,12.51
2023-05-16T19:02:10.297Z,12.46
2023-05-16T19:04:36.714Z,12.46
2023-05-16T19:07:04.805Z,12.48
2023-05-16T19:09:32.633Z,12.51
2023-05-16T19:11:59.039Z,12.43
2023-05-16T19:14:27.102Z,12.28
2023-05-16T19:16:53.480Z,12.35
2023-05-16T19:19:19.920Z,12.27
2023-05-16T19:21:46.712Z,12.19
2023-05-16T19:24:13.096Z,12.21
2023-05-16T19:26:39.907Z,12.12
2023-05-16T19:29:06.415Z,12.00
2023-05-16T19:31:32.830Z,12.02
2023-05-16T19:33:59.252Z,11.83
2023-05-16T19:36:25.614Z,11.86
2023-05-16T19:38:51.982Z,11.81
2023-05-16T19:41:18.349Z,11.80
2023-05-16T19:43:44.719Z,11.75
2023-05-16T19:46:11.169Z,11.81
2023-05-16T19:48:37.661Z,11.81
2023-05-16T19:51:04.286Z,11.89
2023-05-16T19:53:30.658Z,11.83
2023-05-16T19:55:57.092Z,11.75
2023-05-16T19:58:23.479Z,11.62
2023-05-16T20:00:50.755Z,11.64
2023-05-16T20:03:17.345Z,11.50
2023-05-16T20:05:43.818Z,11.63
2023-05-16T20:08:11.156Z,11.52
2023-05-16T20:10:38.902Z,11.44
2023-05-16T20:13:05.272Z,11.39
2023-05-16T20:15:31.841Z,11.37
2023-05-16T20:17:58.267Z,11.45
2023-05-16T20:20:24.809Z,11.41
2023-05-16T20:22:51.226Z,11.24
2023-05-16T20:25:17.665Z,11.10
2023-05-16T20:27:44.006Z,11.27
2023-05-16T20:30:10.763Z,11.25
2023-05-16T20:32:37.171Z,11.25
2023-05-16T20:35:04.837Z,11.19
2023-05-16T20:37:31.275Z,11.17
2023-05-16T20:39:57.612Z,11.12
2023-05-16T20:42:26.405Z,11.14
2023-05-16T20:44:52.756Z,11.10
2023-05-16T20:47:19.144Z,11.04
2023-05-16T20:49:45.499Z,11.00
2023-05-16T20:52:11.883Z,11.06
2023-05-16T20:54:38.305Z,10.94
2023-05-16T20:57:05.215Z,10.88
2023-05-16T20:59:32.199Z,10.85
2023-05-16T21:01:58.659Z,11.02
2023-05-16T21:04:25.574Z,10.87
2023-05-16T21:06:52.015Z,10.75
2023-05-16T21:09:18.448Z,10.84
2023-05-16T21:11:44.950Z,10.81
2023-05-16T21:14:11.825Z,10.80
2023-05-16T21:16:38.197Z,10.79
2023-05-16T21:19:04.845Z,10.93
2023-05-16T21:21:31.582Z,10.88
2023-05-16T21:23:58.019Z,10.99
2023-05-16T21:26:24.508Z,11.00
2023-05-16T21:28:55.513Z,10.96
2023-05-16T21:31:22.572Z,10.96
2023-05-16T21:33:51.863Z,11.04
2023-05-16T21:36:19.231Z,10.99
2023-05-16T21:38:45.650Z,11.04
2023-05-16T21:41:12.107Z,11.05
2023-05-16T21:43:38.638Z,11.01
2023-05-16T21:46:05.241Z,10.96
2023-05-16T21:48:31.716Z,10.96
2023-05-16T21:50:58.243Z,11.07
2023-05-16T21:53:25.970Z,11.15
2023-05-16T21:55:52.369Z,11.08
2023-05-16T21:58:19.290Z,11.02
2023-05-16T22:00:45.894Z,11.10
2023-05-16T22:03:12.421Z,11.08
2023-05-16T22:05:38.821Z,11.10
2023-05-16T22:08:05.476Z,11.10
2023-05-16T22:10:31.859Z,11.07
2023-05-16T22:12:58.232Z,11.00
2023-05-16T22:15:24.631Z,10.98
2023-05-16T22:17:51.138Z,11.06
2023-05-16T22:20:17.621Z,10.98
2023-05-16T22:22:44.937Z,10.99
2023-05-16T22:25:11.503Z,10.92
2023-05-16T22:27:37.928Z,10.84
2023-05-16T22:30:04.850Z,10.90
2023-05-16T22:32:31.269Z,10.85
2023-05-16T22:34:57.771Z,10.73
2023-05-16T22:37:24.251Z,10.65
2023-05-16T22:39:51.282Z,10.83
2023-05-16T22:42:17.938Z,10.77
2023-05-16T22:44:44.414Z,10.53
2023-05-16T22:47:10.956Z,10.77
2023-05-16T22:49:37.363Z,10.70
2023-05-16T22:52:03.990Z,10.64
2023-05-16T22:54:30.402Z,10.51
2023-05-16T22:56:56.784Z,10.57
2023-05-16T22:59:23.183Z,10.46
2023-05-16T23:01:49.688Z,10.40
2023-05-16T23:04:16.090Z,10.32
2023-05-16T23:06:42.505Z,10.35
2023-05-16T23:09:08.877Z,10.23
2023-05-16T23:11:35.273Z,10.36
2023-05-16T23:14:01.677Z,10.26
2023-05-16T23:16:28.078Z,10.33
2023-05-16T23:18:54.542Z,10.10
2023-05-16T23:21:21.002Z,10.29
2023-05-16T23:23:47.366Z,10.19
2023-05-16T23:26:13.744Z,10.20
2023-05-16T23:28:40.217Z,10.30
2023-05-16T23:31:06.594Z,10.30
2023-05-16T23:33:33.480Z,10.13
2023-05-16T23:35:59.883Z,10.07
2023-05-16T23:38:27.229Z,9.96
2023-05-16T23:40:53.628Z,10.01
2023-05-16T23:43:19.977Z,9.85
2023-05-16T23:45:46.605Z,9.86
2023-05-16T23:48:13.036Z,9.86
2023-05-16T23:50:39.669Z,9.76
2023-05-16T23:53:06.232Z,9.78
2023-05-16T23:55:32.602Z,9.83
2023-05-16T23:57:59.011Z,9.95
